Time;durP1;ratioP1;P1;durP2;ratioP2;P2;SDS_P1;SDS_P2;PMS_P1;PMS_P2;Temp;Humidity;BMP_temperature;BMP_pressure;BME280_temperature;BME280_humidity;BME280_pressure;Samples;Min_cycle;Max_cycle;Signal;HPM_P1;HPM_P2
2020/12/01 00:01:36;;;;;;;10.80;6.50;;;17.30;31.50;;;;;;8283778;28;20050;-48
2020/12/01 00:05:36;;;;;;;9.50;6.47;;;17.30;31.50;;;;;;8264885;28;20452;-45
2020/12/01 00:09:37;;;;;;;7.47;5.70;;;17.30;31.50;;;;;;8292855;28;20037;-46
2020/12/01 00:13:38;;;;;;;8.82;5.75;;;17.30;31.50;;;;;;8293238;28;20040;-46
2020/12/01 00:17:38;;;;;;;10.97;6.07;;;17.30;31.50;;;;;;8261810;28;20039;-46
2020/12/01 00:21:39;;;;;;;9.07;5.60;;;17.30;31.50;;;;;;8263745;28;20046;-46
2020/12/01 00:25:39;;;;;;;7.70;5.53;;;17.30;31.50;;;;;;8330290;28;20505;-47
2020/12/01 00:29:40;;;;;;;8.60;5.60;;;17.30;31.50;;;;;;8325239;28;20044;-46
2020/12/01 00:33:41;;;;;;;10.20;5.93;;;17.30;31.50;;;;;;8323294;28;20501;-46
2020/12/01 00:37:41;;;;;;;9.27;6.33;;;17.30;31.50;;;;;;8308060;28;20041;-46
2020/12/01 00:41:42;;;;;;;9.43;5.50;;;17.30;32.00;;;;;;8283721;28;20069;-49
2020/12/01 00:45:43;;;;;;;8.13;5.50;;;17.30;31.60;;;;;;8295823;28;20045;-47
2020/12/01 00:49:44;;;;;;;8.48;5.57;;;17.30;31.50;;;;;;8313073;28;20061;-46
2020/12/01 00:53:44;;;;;;;8.80;6.20;;;17.20;31.50;;;;;;8302158;28;20410;-46
2020/12/01 00:57:45;;;;;;;9.03;6.13;;;17.30;31.50;;;;;;8267866;28;20034;-46
2020/12/01 01:01:45;;;;;;;10.50;6.20;;;17.30;31.60;;;;;;8284148;28;20054;-46
2020/12/01 01:05:46;;;;;;;10.50;6.17;;;17.30;31.50;;;;;;8279450;28;20092;-46
2020/12/01 01:09:46;;;;;;;10.93;6.37;;;17.30;31.60;;;;;;8266127;28;20084;-46
2020/12/01 01:13:47;;;;;;;8.80;5.90;;;17.30;31.50;;;;;;8292449;28;20037;-45
2020/12/01 01:17:47;;;;;;;9.57;6.00;;;17.30;31.60;;;;;;8298840;28;20030;-46
2020/12/01 01:21:48;;;;;;;8.20;5.90;;;17.20;31.50;;;;;;8269393;28;20050;-46
2020/12/01 01:25:49;;;;;;;11.90;6.10;;;17.20;31.50;;;;;;8266435;28;20034;-45
2020/12/01 01:29:50;;;;;;;9.77;6.00;;;17.20;31.60;;;;;;8286484;28;20037;-46
2020/12/01 01:33:50;;;;;;;9.60;5.93;;;17.30;31.60;;;;;;8301352;28;20034;-46
2020/12/01 01:37:51;;;;;;;9.70;5.60;;;17.20;31.60;;;;;;8328355;28;20406;-46
2020/12/01 01:41:51;;;;;;;7.77;5.03;;;17.20;31.50;;;;;;8289029;28;20069;-46
2020/12/01 01:45:52;;;;;;;10.97;7.10;;;17.20;31.60;;;;;;8264119;28;20125;-46
2020/12/01 01:50:17;;;;;;;8.73;5.80;;;17.20;31.60;;;;;;8265529;28;20053;-46
2020/12/01 01:54:19;;;;;;;9.10;5.82;;;17.20;31.60;;;;;;8293220;28;20038;-47
2020/12/01 01:58:20;;;;;;;;;;;17.20;31.60;;;;;;8263865;28;20511;-45
2020/12/01 02:02:20;;;;;;;9.38;5.95;;;17.20;31.60;;;;;;8265206;28;19928;-47
2020/12/01 02:06:42;;;;;;;11.73;6.43;;;17.20;31.60;;;;;;8263381;28;20031;-44
2020/12/01 02:10:44;;;;;;;10.05;6.00;;;17.20;31.60;;;;;;8264850;28;20027;-47
2020/12/01 02:14:58;;;;;;;8.00;5.28;;;17.20;31.70;;;;;;8269029;28;20039;-46
2020/12/01 02:18:58;;;;;;;8.98;5.82;;;17.20;31.70;;;;;;8262970;28;20045;-45
2020/12/01 02:22:59;;;;;;;8.93;5.97;;;17.20;31.70;;;;;;8264637;28;20066;-48
2020/12/01 02:27:00;;;;;;;9.30;6.17;;;17.20;31.70;;;;;;8264425;28;20034;-51
2020/12/01 02:31:01;;;;;;;9.00;5.70;;;17.20;31.70;;;;;;8266155;28;20101;-47
2020/12/01 02:35:03;;;;;;;10.03;6.00;;;17.20;31.70;;;;;;8263991;28;20026;-46
2020/12/01 02:39:06;;;;;;;8.57;5.68;;;17.20;31.70;;;;;;8263817;28;20026;-47
2020/12/01 02:43:09;;;;;;;8.85;5.70;;;17.20;31.80;;;;;;8272683;28;20073;-47
2020/12/01 02:47:10;;;;;;;8.05;5.38;;;17.20;31.80;;;;;;8293980;28;20041;-48
2020/12/01 02:51:10;;;;;;;8.87;5.47;;;17.20;31.80;;;;;;8267798;28;20034;-48
2020/12/01 02:55:11;;;;;;;7.67;5.33;;;17.20;31.80;;;;;;8268768;28;20618;-48
2020/12/01 02:59:15;;;;;;;7.63;5.13;;;17.20;31.80;;;;;;8281177;28;20034;-48
2020/12/01 03:03:16;;;;;;;8.05;5.22;;;17.20;31.80;;;;;;8287364;28;20034;-47
2020/12/01 03:07:16;;;;;;;9.03;5.93;;;17.20;31.90;;;;;;8298423;28;20398;-47
2020/12/01 03:11:17;;;;;;;7.73;5.40;;;17.20;31.90;;;;;;8296107;28;20121;-47
2020/12/01 03:15:18;;;;;;;8.97;6.07;;;17.20;31.90;;;;;;8271699;28;20491;-46
2020/12/01 03:19:21;;;;;;;8.05;5.60;;;17.20;31.90;;;;;;8269020;28;20060;-46
2020/12/01 03:23:21;;;;;;;9.63;5.82;;;17.20;31.90;;;;;;8295972;28;20046;-46
2020/12/01 03:27:22;;;;;;;7.87;5.50;;;17.20;31.90;;;;;;8296384;28;20065;-44
2020/12/01 03:31:22;;;;;;;9.83;5.77;;;17.20;31.90;;;;;;8294480;28;20034;-47
2020/12/01 03:35:27;;;;;;;8.33;5.47;;;17.20;32.00;;;;;;8295479;28;20457;-47
2020/12/01 03:39:28;;;;;;;8.23;5.75;;;17.20;32.00;;;;;;8267280;28;20093;-47
2020/12/01 03:43:28;;;;;;;7.90;5.60;;;17.20;32.00;;;;;;8266402;28;20074;-47
2020/12/01 03:47:29;;;;;;;9.53;5.73;;;17.20;32.00;;;;;;8279504;28;20502;-47
2020/12/01 03:51:29;;;;;;;10.47;6.13;;;17.20;32.00;;;;;;8292928;28;20045;-46
2020/12/01 03:55:30;;;;;;;9.13;5.70;;;17.20;32.00;;;;;;8294152;28;20535;-46
2020/12/01 03:59:31;;;;;;;7.07;4.83;;;17.20;32.10;;;;;;8298183;28;20108;-46
2020/12/01 04:03:31;;;;;;;7.63;5.60;;;17.20;32.10;;;;;;8292166;28;20273;-47
2020/12/01 04:07:32;;;;;;;9.20;6.07;;;17.10;32.00;;;;;;8293581;28;20037;-48
2020/12/01 04:11:33;;;;;;;10.43;6.05;;;17.20;32.10;;;;;;8293595;28;20115;-50
2020/12/01 04:15:33;;;;;;;9.80;5.67;;;17.10;32.00;;;;;;8291616;28;20034;-46
2020/12/01 04:19:34;;;;;;;7.63;4.90;;;17.20;32.20;;;;;;8297680;28;20083;-46
2020/12/01 04:23:34;;;;;;;6.63;4.73;;;17.20;32.20;;;;;;8294085;28;20053;-46
2020/12/01 04:27:36;;;;;;;8.27;5.03;;;17.20;32.30;;;;;;8267235;28;20031;-48
2020/12/01 04:31:36;;;;;;;7.28;4.68;;;17.20;32.30;;;;;;8283172;28;20034;-46
2020/12/01 04:35:37;;;;;;;8.03;5.27;;;17.20;32.30;;;;;;8264882;28;20030;-46
2020/12/01 04:39:38;;;;;;;7.75;4.78;;;17.30;32.30;;;;;;8261302;28;20431;-49
2020/12/01 04:43:46;;;;;;;7.43;4.57;;;17.30;32.30;;;;;;8292656;28;20054;-46
2020/12/01 04:47:59;;;;;;;7.80;4.80;;;17.40;32.40;;;;;;8292769;28;20031;-45
2020/12/01 04:52:34;;;;;;;6.97;4.70;;;17.40;32.30;;;;;;8292505;28;20121;-48
2020/12/01 04:57:02;;;;;;;6.95;4.65;;;17.40;32.30;;;;;;8311413;28;20478;-46
2020/12/01 05:01:15;;;;;;;8.43;5.72;;;17.40;32.30;;;;;;8268047;28;20057;-46
2020/12/01 05:05:37;;;;;;;6.82;4.50;;;17.50;32.40;;;;;;8277694;28;20057;-45
2020/12/01 05:09:38;;;;;;;;;;;17.50;32.40;;;;;;8258692;28;20035;-46
2020/12/01 05:13:38;;;;;;;5.90;4.03;;;17.50;32.30;;;;;;8279303;28;19916;-46
2020/12/01 05:18:00;;;;;;;7.97;4.47;;;17.50;32.30;;;;;;8329230;28;20041;-46
2020/12/01 05:22:01;;;;;;;7.38;5.32;;;17.40;32.20;;;;;;8327409;28;20045;-45
2020/12/01 05:26:05;;;;;;;7.07;4.73;;;17.40;32.20;;;;;;8310341;28;20034;-46
2020/12/01 05:30:13;;;;;;;5.82;4.55;;;17.40;32.20;;;;;;8276301;28;20388;-46
2020/12/01 05:34:17;;;;;;;6.85;4.47;;;17.40;32.20;;;;;;8289265;28;20385;-47
2020/12/01 05:38:20;;;;;;;7.30;4.35;;;17.30;32.20;;;;;;8296169;28;20038;-46
2020/12/01 05:42:21;;;;;;;8.13;4.57;;;17.40;32.20;;;;;;8290035;28;20049;-45
2020/12/01 05:46:32;;;;;;;7.35;4.97;;;17.30;32.20;;;;;;8267531;28;20030;-45
2020/12/01 05:50:33;;;;;;;7.47;4.68;;;17.30;32.30;;;;;;8292069;28;20475;-46
2020/12/01 05:54:37;;;;;;;7.37;4.83;;;17.30;32.30;;;;;;8289984;28;20053;-46
2020/12/01 05:58:41;;;;;;;6.63;4.70;;;17.30;32.30;;;;;;8285876;28;20042;-47
2020/12/01 06:03:07;;;;;;;5.53;4.20;;;17.30;32.40;;;;;;8258931;28;20050;-45
2020/12/01 06:07:12;;;;;;;6.70;4.70;;;17.30;32.40;;;;;;8293831;28;20045;-46
2020/12/01 06:11:37;;;;;;;6.60;4.60;;;17.30;33.00;;;;;;8297153;28;20034;-46
2020/12/01 06:15:52;;;;;;;7.50;4.45;;;17.30;32.40;;;;;;8295447;28;20026;-47
2020/12/01 06:20:00;;;;;;;7.75;4.50;;;17.30;32.40;;;;;;8301364;28;20042;-46
2020/12/01 06:24:39;;;;;;;6.70;4.80;;;17.30;32.40;;;;;;8327988;28;20057;-47
2020/12/01 06:29:05;;;;;;;4.78;3.50;;;17.30;32.40;;;;;;8268442;28;20093;-47
2020/12/01 06:33:42;;;;;;;6.68;4.35;;;17.30;32.40;;;;;;8264346;28;20125;-47
2020/12/01 06:38:10;;;;;;;4.85;3.78;;;17.40;32.40;;;;;;8262549;28;20038;-46
2020/12/01 06:42:18;;;;;;;6.43;4.15;;;17.40;32.40;;;;;;8241411;28;20412;-46
2020/12/01 06:46:37;;;;;;;6.50;4.00;;;17.50;32.50;;;;;;8262163;28;20033;-46
2020/12/01 06:50:42;;;;;;;6.28;4.28;;;17.40;32.40;;;;;;8286471;28;20034;-46
2020/12/01 06:54:53;;;;;;;7.22;3.92;;;17.50;32.50;;;;;;8294227;28;20045;-47
2020/12/01 06:59:05;;;;;;;4.57;3.65;;;17.50;32.50;;;;;;8295979;28;20057;-46
2020/12/01 07:03:10;;;;;;;5.93;3.92;;;17.40;32.40;;;;;;8273506;28;20047;-46
2020/12/01 07:07:27;;;;;;;6.15;4.00;;;17.50;32.50;;;;;;8285664;28;20065;-47
2020/12/01 07:11:31;;;;;;;6.13;4.15;;;17.40;32.40;;;;;;8284665;28;20030;-46
2020/12/01 07:15:43;;;;;;;6.38;4.30;;;17.40;32.40;;;;;;8294409;28;20121;-47
2020/12/01 07:19:52;;;;;;;5.78;3.85;;;17.40;32.40;;;;;;8306719;28;20038;-46
2020/12/01 07:23:59;;;;;;;5.70;3.90;;;17.40;32.40;;;;;;8317445;28;20050;-47
2020/12/01 07:28:21;;;;;;;6.50;4.22;;;17.40;32.40;;;;;;8293277;28;20037;-47
2020/12/01 07:32:25;;;;;;;5.03;3.90;;;17.40;32.40;;;;;;8282852;28;20030;-47
2020/12/01 07:36:39;;;;;;;4.78;3.35;;;17.40;32.40;;;;;;8313561;28;20049;-46
2020/12/01 07:40:47;;;;;;;4.35;3.60;;;17.30;32.40;;;;;;8326569;28;20041;-46
2020/12/01 07:44:48;;;;;;;6.85;4.25;;;17.30;32.50;;;;;;8326504;28;20034;-45
2020/12/01 07:48:57;;;;;;;5.17;3.80;;;17.30;32.50;;;;;;8323272;28;20414;-46
2020/12/01 07:53:09;;;;;;;4.88;3.40;;;17.30;32.60;;;;;;8298390;28;20034;-48
2020/12/01 07:57:16;;;;;;;6.13;3.50;;;17.30;32.60;;;;;;8271860;28;20034;-46
2020/12/01 08:01:17;;;;;;;5.35;4.00;;;17.30;32.60;;;;;;8259972;28;20043;-46
2020/12/01 08:05:17;;;;;;;5.67;4.07;;;17.30;32.60;;;;;;8277251;28;20120;-49
2020/12/01 08:09:23;;;;;;;5.63;3.80;;;17.40;32.60;;;;;;8273941;28;20042;-47
2020/12/01 08:13:25;;;;;;;4.18;3.40;;;17.40;32.60;;;;;;8262509;28;20046;-47
2020/12/01 08:17:28;;;;;;;3.47;3.03;;;17.40;32.60;;;;;;8261020;28;20045;-46
2020/12/01 08:21:35;;;;;;;4.22;3.40;;;17.40;32.60;;;;;;8284666;28;20054;-46
2020/12/01 08:25:37;;;;;;;4.28;3.25;;;17.40;32.60;;;;;;8283583;28;20033;-46
2020/12/01 08:29:39;;;;;;;5.35;3.45;;;17.40;32.50;;;;;;8264331;28;20038;-46
2020/12/01 08:34:17;;;;;;;3.95;3.15;;;17.50;32.60;;;;;;8258829;28;20046;-46
2020/12/01 08:38:25;;;;;;;4.32;3.25;;;17.50;32.60;;;;;;8276391;28;20044;-45
2020/12/01 08:42:53;;;;;;;4.00;3.15;;;17.50;32.60;;;;;;8266219;28;20496;-45
2020/12/01 08:46:56;;;;;;;3.67;3.05;;;17.40;32.60;;;;;;8260661;28;20113;-46
2020/12/01 08:51:22;;;;;;;4.20;3.00;;;17.40;32.60;;;;;;8285562;28;20126;-46
2020/12/01 08:55:30;;;;;;;3.88;3.10;;;17.40;32.50;;;;;;8271512;28;20142;-46
2020/12/01 08:59:37;;;;;;;5.05;3.25;;;17.50;32.60;;;;;;8292246;28;20395;-46
2020/12/01 09:03:39;;;;;;;3.88;2.88;;;17.50;32.60;;;;;;8290702;28;20050;-48
2020/12/01 09:07:43;;;;;;;3.88;2.85;;;17.50;32.60;;;;;;8301310;28;20041;-47
2020/12/01 09:16:20;;;;;;;4.28;3.20;;;17.50;33.10;;;;;;8262497;28;20074;-46
2020/12/01 09:24:46;;;;;;;3.85;3.13;;;17.50;32.60;;;;;;8269047;28;20073;-46
2020/12/01 09:28:52;;;;;;;5.10;3.37;;;17.50;32.60;;;;;;8259487;28;20066;-47
2020/12/01 09:32:53;;;;;;;3.92;2.83;;;17.50;32.60;;;;;;8280803;28;20038;-46
2020/12/01 09:37:02;;;;;;;4.68;3.40;;;17.50;32.60;;;;;;8265781;28;20065;-47
2020/12/01 09:41:02;;;;;;;4.72;3.70;;;17.60;32.60;;;;;;8265152;28;20053;-45
2020/12/01 09:49:21;;;;;;;4.60;3.05;;;17.50;32.60;;;;;;8319425;28;20026;-47
2020/12/01 10:36:42;;;;;;;3.75;3.00;;;17.40;32.80;;;;;;8247053;28;20048;-46
2020/12/01 10:40:42;;;;;;;4.40;3.20;;;17.40;32.70;;;;;;8299952;28;20038;-45
2020/12/01 10:44:43;;;;;;;4.53;3.23;;;17.50;32.80;;;;;;8313914;28;20042;-46
2020/12/01 10:48:44;;;;;;;5.80;2.90;;;17.50;32.70;;;;;;8270775;28;20037;-47
2020/12/01 10:52:44;;;;;;;3.60;2.70;;;17.50;32.70;;;;;;8312839;28;20037;-46
2020/12/01 10:56:49;;;;;;;3.43;2.80;;;17.50;32.70;;;;;;8307929;28;20332;-46
2020/12/01 11:00:50;;;;;;;3.58;3.08;;;17.50;32.60;;;;;;8302291;28;20045;-46
2020/12/01 11:04:50;;;;;;;2.83;2.53;;;17.50;32.60;;;;;;8315633;28;20097;-46
2020/12/01 11:08:51;;;;;;;3.23;2.63;;;17.50;32.60;;;;;;8273649;28;20045;-46
2020/12/01 11:12:51;;;;;;;4.50;2.93;;;17.60;32.70;;;;;;8265873;28;20413;-46
2020/12/01 11:16:52;;;;;;;4.20;2.87;;;17.60;32.60;;;;;;8295172;28;20084;-48
2020/12/01 11:20:52;;;;;;;4.57;2.47;;;17.60;32.60;;;;;;8299636;28;20038;-46
2020/12/01 11:24:53;;;;;;;3.13;2.80;;;17.60;32.60;;;;;;8293638;28;20034;-46
2020/12/01 11:28:53;;;;;;;3.17;2.73;;;17.60;32.60;;;;;;8297197;28;20077;-46
2020/12/01 11:32:54;;;;;;;4.27;2.93;;;17.60;32.70;;;;;;8288628;28;20031;-46
2020/12/01 11:36:55;;;;;;;3.70;2.80;;;17.60;32.70;;;;;;8269361;28;20025;-47
2020/12/01 11:40:55;;;;;;;3.08;2.50;;;17.60;32.60;;;;;;8323222;28;20449;-48
2020/12/01 11:44:56;;;;;;;3.53;3.00;;;17.60;32.60;;;;;;8308399;28;20030;-47
2020/12/01 11:49:02;;;;;;;3.57;2.40;;;17.60;32.60;;;;;;8292489;28;20461;-50
2020/12/01 11:53:03;;;;;;;3.60;2.53;;;17.60;32.70;;;;;;8295418;28;20072;-47
2020/12/01 11:57:04;;;;;;;4.10;2.90;;;17.50;32.70;;;;;;8297502;28;20034;-48
2020/12/01 12:01:05;;;;;;;3.95;2.55;;;17.50;32.60;;;;;;8291575;28;20077;-48
2020/12/01 12:05:05;;;;;;;3.23;2.40;;;17.50;32.70;;;;;;8306723;28;20498;-46
2020/12/01 12:09:08;;;;;;;3.93;2.20;;;17.50;32.80;;;;;;8299065;28;20034;-46
2020/12/01 12:13:09;;;;;;;2.83;2.30;;;17.50;32.80;;;;;;8263652;28;20103;-47
2020/12/01 12:17:09;;;;;;;2.63;2.33;;;17.50;32.80;;;;;;8276336;28;20096;-47
2020/12/01 12:21:10;;;;;;;2.57;2.20;;;17.50;32.80;;;;;;8293075;28;20041;-48
2020/12/01 12:25:11;;;;;;;3.43;2.40;;;17.50;32.90;;;;;;8291844;28;20037;-48
2020/12/01 12:29:11;;;;;;;3.30;2.30;;;17.50;32.80;;;;;;8297171;28;20041;-48
2020/12/01 12:33:12;;;;;;;2.47;2.17;;;17.50;32.80;;;;;;8270560;28;20049;-47
2020/12/01 12:37:12;;;;;;;3.10;2.30;;;17.60;32.80;;;;;;8258607;28;20081;-49
2020/12/01 12:41:13;;;;;;;2.50;2.13;;;17.60;32.80;;;;;;8260017;28;20050;-51
2020/12/01 12:45:14;;;;;;;2.70;2.20;;;17.60;32.80;;;;;;8282326;28;20034;-47
2020/12/01 12:49:14;;;;;;;2.63;2.20;;;17.60;32.80;;;;;;8261937;28;20065;-47
2020/12/01 12:53:18;;;;;;;2.50;2.20;;;17.60;32.80;;;;;;8259927;28;20038;-47
2020/12/01 12:57:18;;;;;;;2.40;2.17;;;17.60;32.80;;;;;;8260215;28;20031;-47
2020/12/01 13:01:20;;;;;;;2.70;2.00;;;17.60;32.80;;;;;;8258362;28;20043;-47
2020/12/01 13:05:22;;;;;;;1.83;1.70;;;17.60;32.80;;;;;;8264139;28;20070;-46
2020/12/01 13:09:23;;;;;;;2.63;2.17;;;17.70;32.80;;;;;;8282587;28;20037;-45
2020/12/01 13:13:23;;;;;;;2.33;1.80;;;17.60;32.80;;;;;;8302143;28;20053;-46
2020/12/01 13:17:24;;;;;;;1.93;1.57;;;17.70;32.80;;;;;;8282615;28;20026;-50
2020/12/01 13:21:24;;;;;;;1.97;1.73;;;17.70;32.80;;;;;;8260511;28;20086;-47
2020/12/01 13:25:25;;;;;;;2.37;2.00;;;17.70;32.80;;;;;;8261440;28;20035;-46
2020/12/01 13:29:26;;;;;;;2.80;2.00;;;17.70;32.80;;;;;;8259472;28;20518;-51
2020/12/01 13:33:27;;;;;;;2.13;1.83;;;17.60;32.70;;;;;;8258007;28;20065;-46
2020/12/01 13:37:27;;;;;;;2.03;1.83;;;17.70;32.80;;;;;;8259292;28;20034;-49
2020/12/01 13:41:28;;;;;;;2.90;1.83;;;17.60;33.30;;;;;;8263557;28;20415;-49
2020/12/01 13:45:29;;;;;;;2.80;2.20;;;17.60;32.80;;;;;;8258516;28;20034;-47
2020/12/01 13:49:29;;;;;;;2.00;1.67;;;17.60;32.80;;;;;;8299155;28;20061;-47
2020/12/01 13:53:30;;;;;;;2.07;1.87;;;17.60;32.80;;;;;;8290832;28;20062;-46
2020/12/01 13:57:30;;;;;;;1.90;1.70;;;17.60;32.80;;;;;;8318999;28;20029;-50
2020/12/01 14:01:31;;;;;;;1.80;1.50;;;17.50;32.90;;;;;;8261776;28;20065;-47
2020/12/01 14:05:32;;;;;;;2.40;1.60;;;17.50;32.90;;;;;;8276518;28;20034;-47
2020/12/01 14:09:32;;;;;;;2.35;1.95;;;17.60;33.00;;;;;;8289479;28;20368;-46
2020/12/01 14:13:33;;;;;;;2.97;2.10;;;17.60;33.00;;;;;;8291950;28;20034;-50
2020/12/01 14:17:33;;;;;;;3.30;1.77;;;17.60;33.00;;;;;;8277648;28;20439;-47
2020/12/01 14:21:34;;;;;;;2.07;1.87;;;17.60;32.90;;;;;;8282943;28;20046;-46
2020/12/01 14:25:35;;;;;;;3.67;2.17;;;17.60;32.90;;;;;;8293301;28;20042;-47
2020/12/01 14:29:35;;;;;;;2.97;1.83;;;17.60;33.00;;;;;;8296611;28;20033;-49
2020/12/01 14:33:38;;;;;;;1.60;1.47;;;17.70;33.00;;;;;;8297275;28;20038;-46
2020/12/01 14:37:39;;;;;;;3.17;1.65;;;17.70;33.30;;;;;;8274503;28;20040;-46
2020/12/01 14:41:40;;;;;;;1.83;1.60;;;17.70;33.00;;;;;;8296273;28;20045;-47
2020/12/01 14:45:41;;;;;;;;;;;17.70;32.90;;;;;;8295183;28;20057;-46
2020/12/01 14:49:58;;;;;;;2.10;1.60;;;17.70;32.90;;;;;;8289372;28;19917;-46
2020/12/01 14:54:18;;;;;;;2.80;1.90;;;17.70;32.90;;;;;;8235751;28;20480;-46
2020/12/01 14:59:03;;;;;;;1.70;1.30;;;17.70;32.90;;;;;;8288831;28;20509;-47
2020/12/01 15:03:28;;;;;;;2.00;1.60;;;17.70;32.90;;;;;;8290086;28;20068;-47
2020/12/01 15:07:59;;;;;;;1.90;1.60;;;17.70;33.00;;;;;;8286666;28;20044;-47
2020/12/01 15:12:08;;;;;;;2.37;1.60;;;17.60;32.90;;;;;;8274276;28;20050;-46
2020/12/01 15:16:16;;;;;;;1.75;1.40;;;17.60;32.90;;;;;;8285737;28;20407;-48
2020/12/01 15:20:21;;;;;;;2.70;1.83;;;17.60;33.00;;;;;;8267128;28;20105;-48
2020/12/01 15:24:25;;;;;;;1.98;1.80;;;17.60;33.00;;;;;;8261050;28;20140;-44
2020/12/01 15:28:29;;;;;;;1.95;1.63;;;17.50;33.00;;;;;;8302983;28;20037;-47
2020/12/01 15:32:30;;;;;;;1.90;1.67;;;17.60;33.00;;;;;;8303845;28;20030;-48
2020/12/01 15:36:34;;;;;;;2.20;2.00;;;17.50;33.00;;;;;;8271372;28;20058;-47
2020/12/01 15:40:47;;;;;;;2.08;1.83;;;17.50;33.00;;;;;;8262593;28;20031;-48
2020/12/01 15:44:48;;;;;;;1.95;1.65;;;17.60;33.10;;;;;;8262388;28;20046;-48
2020/12/01 15:48:49;;;;;;;1.80;1.70;;;17.60;33.10;;;;;;8288049;28;20513;-47
2020/12/01 15:53:00;;;;;;;;;;;17.60;33.10;;;;;;8282522;28;20484;-47
2020/12/01 15:57:20;;;;;;;2.15;1.85;;;17.60;33.10;;;;;;8287899;28;19910;-47
2020/12/01 16:01:37;;;;;;;2.20;1.95;;;17.60;33.10;;;;;;8284762;28;20053;-47
2020/12/01 16:05:46;;;;;;;2.30;1.83;;;17.60;33.00;;;;;;8261358;28;20133;-48
2020/12/01 16:09:57;;;;;;;2.33;2.10;;;17.70;33.10;;;;;;8287862;28;20034;-47
2020/12/01 16:14:16;;;;;;;2.58;2.08;;;17.70;33.10;;;;;;8293555;28;20107;-48
2020/12/01 16:18:27;;;;;;;2.63;2.13;;;17.70;33.10;;;;;;8294231;28;20491;-48
2020/12/01 16:22:28;;;;;;;2.08;1.88;;;17.70;33.10;;;;;;8273050;28;20053;-47
2020/12/01 16:26:57;;;;;;;2.10;1.90;;;17.70;33.10;;;;;;8293852;28;20427;-47
2020/12/01 16:30:58;;;;;;;2.00;1.80;;;17.70;33.00;;;;;;8309448;28;20478;-47
2020/12/01 16:35:03;;;;;;;2.33;2.10;;;17.70;33.00;;;;;;8316630;28;20038;-47
2020/12/01 16:39:12;;;;;;;2.38;2.03;;;17.70;33.00;;;;;;8272845;28;20027;-48
2020/12/01 16:43:21;;;;;;;2.88;2.20;;;17.70;32.90;;;;;;8263176;28;20385;-48
2020/12/01 16:47:29;;;;;;;4.68;1.67;;;17.70;33.00;;;;;;8284545;28;20088;-47
2020/12/01 16:51:46;;;;;;;1.90;1.70;;;17.70;33.00;;;;;;8298700;28;20026;-48
2020/12/01 16:56:21;;;;;;;2.70;2.05;;;17.70;33.00;;;;;;8260428;28;20046;-48
2020/12/01 17:00:48;;;;;;;2.80;2.50;;;17.70;33.00;;;;;;8260862;28;20034;-46
2020/12/01 17:05:19;;;;;;;2.45;2.17;;;17.70;33.60;;;;;;8296820;28;20124;-48
2020/12/01 17:09:19;;;;;;;3.35;2.30;;;17.60;33.00;;;;;;8231843;28;20035;-48
2020/12/01 17:14:02;;;;;;;2.13;1.77;;;17.60;33.10;;;;;;8250838;28;20627;-48
2020/12/01 17:18:04;;;;;;;2.30;2.05;;;17.60;33.10;;;;;;8301800;28;20406;-48
2020/12/01 17:22:19;;;;;;;2.17;1.92;;;17.60;33.20;;;;;;8305098;28;20043;-49
2020/12/01 17:26:26;;;;;;;2.83;2.22;;;17.60;33.10;;;;;;8259113;28;20420;-48
2020/12/01 17:30:36;;;;;;;2.25;1.98;;;17.60;33.10;;;;;;8262309;28;20440;-48
2020/12/01 17:34:44;;;;;;;2.97;2.15;;;17.60;33.10;;;;;;8259822;28;20039;-48
2020/12/01 17:38:47;;;;;;;3.00;2.33;;;17.70;33.10;;;;;;8259844;28;20066;-47
2020/12/01 17:43:14;;;;;;;2.65;2.08;;;17.70;33.10;;;;;;8271768;28;20149;-48
2020/12/01 17:47:40;;;;;;;2.03;1.70;;;17.70;33.10;;;;;;8303665;28;20045;-50
2020/12/01 17:51:42;;;;;;;2.63;2.00;;;17.70;33.10;;;;;;8264540;28;20454;-48
2020/12/01 17:55:45;;;;;;;2.83;2.13;;;17.70;33.10;;;;;;8281368;28;20080;-49
2020/12/01 17:59:47;;;;;;;2.25;2.03;;;17.80;33.10;;;;;;8281013;28;20131;-48
2020/12/01 18:03:55;;;;;;;2.45;2.00;;;17.70;33.10;;;;;;8267809;28;20058;-47
2020/12/01 18:08:17;;;;;;;2.20;2.00;;;17.80;33.10;;;;;;8265197;28;20383;-48
2020/12/01 18:12:26;;;;;;;4.55;2.63;;;17.80;33.10;;;;;;8269284;28;20041;-48
2020/12/01 18:17:10;;;;;;;2.58;2.00;;;17.70;33.00;;;;;;8263682;28;20583;-47
2020/12/01 18:21:34;;;;;;;2.65;1.98;;;17.70;33.00;;;;;;8238343;28;20078;-47
2020/12/01 18:25:48;;;;;;;2.03;1.83;;;17.70;33.10;;;;;;8269815;28;20041;-47
2020/12/01 18:29:57;;;;;;;2.92;2.47;;;17.70;33.10;;;;;;8284468;28;20042;-48
2020/12/01 18:34:24;;;;;;;2.08;1.88;;;17.70;33.10;;;;;;8290457;28;20481;-48
2020/12/01 18:38:29;;;;;;;2.42;2.00;;;17.60;33.00;;;;;;8268395;28;20042;-48
2020/12/01 18:42:34;;;;;;;2.83;2.30;;;17.60;33.10;;;;;;8262585;28;20054;-50
2020/12/01 18:46:37;;;;;;;2.03;1.73;;;17.60;33.20;;;;;;8274169;28;20554;-49
2020/12/01 18:50:38;;;;;;;3.15;2.42;;;17.60;33.20;;;;;;8277691;28;20133;-48
2020/12/01 18:54:38;;;;;;;2.77;2.23;;;17.50;33.20;;;;;;8288653;28;20036;-48
2020/12/01 18:58:39;;;;;;;2.80;2.20;;;17.60;33.20;;;;;;8289642;28;20053;-49
2020/12/01 19:02:41;;;;;;;2.35;2.13;;;17.60;33.80;;;;;;8281986;28;20077;-48
2020/12/01 19:06:41;;;;;;;;;;;17.70;33.30;;;;;;8269678;28;20499;-47
2020/12/01 19:10:43;;;;;;;4.07;2.30;;;17.70;33.20;;;;;;8283859;28;19919;-47
2020/12/01 19:14:45;;;;;;;2.30;2.00;;;17.70;33.20;;;;;;8289594;28;20655;-48
2020/12/01 19:18:45;;;;;;;2.28;2.08;;;17.70;33.20;;;;;;8297073;28;20038;-46
2020/12/01 19:22:46;;;;;;;3.17;2.50;;;17.70;33.20;;;;;;8311299;28;20529;-46
2020/12/01 19:26:47;;;;;;;2.80;2.23;;;17.70;33.20;;;;;;8304435;28;20548;-47
2020/12/01 19:30:48;;;;;;;2.63;2.20;;;17.70;33.20;;;;;;8264743;28;20133;-44
2020/12/01 19:34:48;;;;;;;2.33;2.13;;;17.80;33.20;;;;;;8290208;28;20552;-45
2020/12/01 19:38:49;;;;;;;3.13;2.30;;;17.80;33.20;;;;;;8303938;28;20065;-47
2020/12/01 19:42:50;;;;;;;3.73;2.67;;;17.80;33.10;;;;;;8292435;28;20049;-46
2020/12/01 19:46:51;;;;;;;4.57;2.50;;;17.80;33.10;;;;;;8282512;28;20133;-47
2020/12/01 19:50:52;;;;;;;3.35;2.42;;;17.80;33.10;;;;;;8266185;28;20026;-46
2020/12/01 19:54:52;;;;;;;4.80;3.23;;;17.80;33.10;;;;;;8288638;28;20034;-44
2020/12/01 19:58:53;;;;;;;4.53;2.90;;;17.80;33.60;;;;;;8293622;28;20119;-47
2020/12/01 20:02:54;;;;;;;3.90;2.87;;;17.80;33.10;;;;;;8294050;28;20100;-46
2020/12/01 20:06:56;;;;;;;2.90;2.60;;;17.70;33.10;;;;;;8296359;28;20040;-45
2020/12/01 20:10:56;;;;;;;3.50;2.97;;;17.70;33.10;;;;;;8293326;28;20117;-46
2020/12/01 20:14:57;;;;;;;4.23;2.87;;;17.70;33.10;;;;;;8293548;28;20041;-46
2020/12/01 20:18:59;;;;;;;3.70;3.10;;;17.60;33.10;;;;;;8291726;28;20026;-45
2020/12/01 20:22:59;;;;;;;4.63;2.80;;;17.60;33.20;;;;;;8295080;28;20045;-45
2020/12/01 20:27:00;;;;;;;5.50;3.50;;;17.60;33.10;;;;;;8307195;28;20034;-46
2020/12/01 20:31:03;;;;;;;4.47;3.27;;;17.60;33.20;;;;;;8266283;28;20040;-46
2020/12/01 20:35:03;;;;;;;4.28;3.10;;;17.60;33.20;;;;;;8274193;28;20518;-48
2020/12/01 20:39:40;;;;;;;3.00;2.53;;;17.60;33.20;;;;;;8292435;28;20033;-45
2020/12/01 20:43:41;;;;;;;3.78;2.78;;;17.60;33.30;;;;;;8297132;28;20076;-47
2020/12/01 20:47:41;;;;;;;3.30;2.83;;;17.60;33.30;;;;;;8297031;28;20498;-48
2020/12/01 20:51:42;;;;;;;3.10;2.60;;;17.60;33.20;;;;;;8266650;28;20042;-48
2020/12/01 20:55:44;;;;;;;4.20;2.80;;;17.60;33.20;;;;;;8292389;28;20042;-48
2020/12/01 20:59:44;;;;;;;5.50;2.85;;;17.60;33.20;;;;;;8292307;28;20132;-47
2020/12/01 21:03:45;;;;;;;4.40;2.97;;;17.70;33.20;;;;;;8295097;28;20030;-48
2020/12/01 21:07:45;;;;;;;3.80;2.70;;;17.70;33.20;;;;;;8292328;28;20045;-47
2020/12/01 21:11:59;;;;;;;4.40;3.17;;;17.70;33.20;;;;;;8292598;28;20384;-48
2020/12/01 21:16:00;;;;;;;4.80;2.95;;;17.70;33.10;;;;;;8290562;28;20034;-47
2020/12/01 21:20:01;;;;;;;3.05;2.63;;;17.80;33.20;;;;;;8292133;28;20034;-48
2020/12/01 21:24:03;;;;;;;3.10;2.73;;;17.80;33.10;;;;;;8274778;28;20039;-47
2020/12/01 21:28:10;;;;;;;;;;;17.80;33.10;;;;;;8264247;28;20076;-48
2020/12/01 21:32:18;;;;;;;3.97;3.20;;;17.70;33.00;;;;;;8277301;28;19914;-48
2020/12/01 21:36:20;;;;;;;3.30;2.88;;;17.80;33.10;;;;;;8295205;28;20485;-48
2020/12/01 21:40:24;;;;;;;4.15;2.97;;;17.70;33.60;;;;;;8301068;28;20029;-47
2020/12/01 21:44:48;;;;;;;3.50;2.58;;;17.70;33.00;;;;;;8285387;28;20046;-47
2020/12/01 21:48:49;;;;;;;3.35;2.80;;;17.70;33.00;;;;;;8296556;28;20041;-49
2020/12/01 21:53:19;;;;;;;4.07;2.87;;;17.70;33.10;;;;;;8298225;28;20096;-49
2020/12/01 21:58:04;;;;;;;3.40;2.90;;;17.70;33.00;;;;;;8296340;28;20033;-48
2020/12/01 22:02:36;;;;;;;4.13;3.20;;;17.70;33.10;;;;;;8306779;28;20069;-48
2020/12/01 22:06:51;;;;;;;;;;;17.70;33.10;;;;;;8299351;28;20062;-49
2020/12/01 22:10:56;;;;;;;5.20;2.92;;;17.60;33.10;;;;;;8289745;28;19921;-47
2020/12/01 22:15:27;;;;;;;4.07;3.20;;;17.60;33.10;;;;;;8265225;28;20034;-48
2020/12/01 22:19:28;;;;;;;4.40;2.83;;;17.60;33.10;;;;;;8263604;28;20491;-47